Time;durP1;ratioP1;P1;durP2;ratioP2;P2;SDS_P1;SDS_P2;PMS_P1;PMS_P2;Temp;Humidity;BMP_temperature;BMP_pressure;BME280_temperature;BME280_humidity;BME280_pressure;Samples;Min_cycle;Max_cycle;Signal;HPM_P1;HPM_P2
2021/12/26 00:01:19;;;;;;;1.70;1.60;;;1.70;98.20;;;;;;5064823;28;20486;-75
2021/12/26 00:03:46;;;;;;;1.70;1.50;;;1.70;98.20;;;;;;5079861;28;20468;-76
2021/12/26 00:06:15;;;;;;;1.70;1.60;;;1.60;98.20;;;;;;5064013;28;20484;-76
2021/12/26 00:08:44;;;;;;;1.73;1.60;;;1.60;98.20;;;;;;5080828;28;20477;-76
2021/12/26 00:11:13;;;;;;;1.70;1.60;;;1.50;98.20;;;;;;5061135;28;20483;-79
2021/12/26 00:13:40;;;;;;;1.60;1.50;;;1.50;98.20;;;;;;5082418;28;20457;-76
2021/12/26 00:16:08;;;;;;;1.70;1.50;;;1.50;98.20;;;;;;5060981;28;20475;-76
2021/12/26 00:18:36;;;;;;;1.70;1.60;;;1.50;98.20;;;;;;5057396;28;21053;-77
2021/12/26 00:21:04;;;;;;;1.70;1.60;;;1.40;98.20;;;;;;5039657;28;20458;-74
2021/12/26 00:23:32;;;;;;;1.70;1.50;;;1.40;98.20;;;;;;5067488;28;20469;-75
2021/12/26 00:25:59;;;;;;;1.70;1.60;;;1.40;98.20;;;;;;5060519;28;20458;-74
2021/12/26 00:28:27;;;;;;;1.77;1.67;;;1.30;98.20;;;;;;5083878;28;20477;-78
2021/12/26 00:30:54;;;;;;;1.70;1.60;;;1.30;98.20;;;;;;5058898;28;20486;-75
2021/12/26 00:33:22;;;;;;;1.67;1.50;;;1.30;98.20;;;;;;5061216;28;20458;-76
2021/12/26 00:35:49;;;;;;;1.70;1.60;;;1.30;98.20;;;;;;5036791;28;20458;-75
2021/12/26 00:38:16;;;;;;;1.80;1.70;;;1.20;98.20;;;;;;5067700;28;20489;-75
2021/12/26 00:40:43;;;;;;;1.70;1.60;;;1.20;98.20;;;;;;5070349;28;20467;-76
2021/12/26 00:43:10;;;;;;;1.70;1.60;;;1.20;98.20;;;;;;5074120;28;20481;-76
2021/12/26 00:45:40;;;;;;;1.70;1.60;;;1.20;98.20;;;;;;5068390;28;20464;-76
2021/12/26 00:48:08;;;;;;;1.70;1.60;;;1.30;98.20;;;;;;5071865;28;20533;-74
2021/12/26 00:50:37;;;;;;;1.70;1.60;;;1.30;98.20;;;;;;5066677;28;20525;-77
2021/12/26 00:53:05;;;;;;;1.70;1.60;;;1.30;98.20;;;;;;5072047;28;20477;-75
2021/12/26 00:55:32;;;;;;;1.70;1.60;;;1.30;98.20;;;;;;5060542;28;20481;-76
2021/12/26 00:57:59;;;;;;;1.80;1.60;;;1.40;98.20;;;;;;5070255;28;20480;-76
2021/12/26 01:00:29;;;;;;;1.70;1.50;;;1.40;98.20;;;;;;5068220;28;20466;-77
2021/12/26 01:02:59;;;;;;;1.70;1.60;;;1.40;98.20;;;;;;5055249;28;21283;-78
2021/12/26 01:05:26;;;;;;;1.77;1.67;;;1.50;98.20;;;;;;5064154;28;21230;-77
2021/12/26 01:07:57;;;;;;;1.70;1.60;;;1.50;98.20;;;;;;5072468;28;20494;-76
2021/12/26 01:10:26;;;;;;;1.70;1.60;;;1.50;98.20;;;;;;5065423;28;20492;-76
2021/12/26 01:12:55;;;;;;;1.70;1.60;;;1.50;98.20;;;;;;5072499;28;20485;-74
2021/12/26 01:15:23;;;;;;;1.70;1.60;;;1.50;98.20;;;;;;5064356;28;20458;-76
2021/12/26 01:17:55;;;;;;;1.70;1.60;;;1.50;98.20;;;;;;5057690;28;20493;-76
2021/12/26 01:20:41;;;;;;;1.67;1.50;;;1.50;98.20;;;;;;5060259;28;20457;-76
2021/12/26 01:23:09;;;;;;;1.70;1.60;;;1.50;98.20;;;;;;5046567;28;20898;-78
2021/12/26 01:25:37;;;;;;;1.70;1.50;;;1.50;98.20;;;;;;5066718;28;20540;-75
2021/12/26 01:28:05;;;;;;;1.70;1.50;;;1.50;98.20;;;;;;5073019;28;20495;-77
2021/12/26 01:30:34;;;;;;;1.80;1.70;;;1.60;98.20;;;;;;5065696;28;20568;-73
2021/12/26 01:33:00;;;;;;;1.70;1.57;;;1.60;98.20;;;;;;5051413;28;20485;-75
2021/12/26 01:35:29;;;;;;;1.70;1.50;;;1.60;98.20;;;;;;5064014;28;20487;-74
2021/12/26 01:37:56;;;;;;;1.70;1.60;;;1.60;98.20;;;;;;5051642;28;20495;-74
2021/12/26 01:40:23;;;;;;;1.70;1.60;;;1.60;98.20;;;;;;5063957;28;20886;-74
2021/12/26 01:42:50;;;;;;;1.67;1.50;;;1.70;98.20;;;;;;5053026;28;20477;-74
2021/12/26 01:45:17;;;;;;;1.70;1.60;;;1.70;98.20;;;;;;5063780;28;20461;-75
2021/12/26 01:47:46;;;;;;;1.70;1.50;;;1.70;98.20;;;;;;5054088;28;21005;-74
2021/12/26 01:50:13;;;;;;;1.70;1.60;;;1.70;98.20;;;;;;5063955;28;20504;-74
2021/12/26 01:52:41;;;;;;;1.67;1.50;;;1.70;98.20;;;;;;5069060;28;20479;-74
2021/12/26 01:57:51;;;;;;;1.70;1.50;;;1.70;98.20;;;;;;5067912;28;20484;-74
2021/12/26 02:00:20;;;;;;;1.77;1.67;;;1.70;98.20;;;;;;5061032;28;20460;-74
2021/12/26 02:02:48;;;;;;;1.70;1.60;;;1.70;98.20;;;;;;5067773;28;20482;-74
2021/12/26 02:05:15;;;;;;;1.70;1.50;;;1.80;98.20;;;;;;5065965;28;20467;-74
2021/12/26 02:07:44;;;;;;;3.83;3.20;;;1.80;98.20;;;;;;5069606;28;20483;-74
2021/12/26 02:10:10;;;;;;;1.63;1.50;;;1.80;98.20;;;;;;5062420;28;20539;-75
2021/12/26 02:12:37;;;;;;;1.70;1.60;;;1.80;98.20;;;;;;5069887;28;20865;-75
2021/12/26 02:15:05;;;;;;;1.70;1.50;;;1.80;98.20;;;;;;5064546;28;20453;-75
2021/12/26 02:17:32;;;;;;;1.67;1.50;;;1.80;98.20;;;;;;5067370;28;20861;-72
2021/12/26 02:20:38;;;;;;;1.70;1.53;;;1.80;98.20;;;;;;5066061;28;20493;-74
2021/12/26 02:23:12;;;;;;;1.70;1.50;;;1.80;98.20;;;;;;4993347;28;20475;-75
2021/12/26 02:28:24;;;;;;;1.70;1.50;;;1.80;98.20;;;;;;5074418;28;20484;-75
2021/12/26 02:30:53;;;;;;;1.87;1.77;;;1.80;98.20;;;;;;5057946;28;20495;-72
2021/12/26 02:33:21;;;;;;;1.70;1.60;;;1.80;98.20;;;;;;5066070;28;20461;-73
2021/12/26 02:35:51;;;;;;;1.73;1.60;;;1.90;98.20;;;;;;5061010;28;20465;-73
2021/12/26 02:38:19;;;;;;;1.67;1.50;;;1.80;98.20;;;;;;5064078;28;20921;-74
2021/12/26 02:40:50;;;;;;;1.60;1.50;;;1.80;98.20;;;;;;5063735;28;20458;-74
2021/12/26 02:43:18;;;;;;;1.70;1.50;;;1.80;98.20;;;;;;5050053;28;20482;-74
2021/12/26 02:45:45;;;;;;;1.70;1.50;;;1.80;98.20;;;;;;5065376;28;21156;-74
2021/12/26 02:48:13;;;;;;;1.70;1.53;;;1.80;98.20;;;;;;5046516;28;20496;-74
2021/12/26 02:50:42;;;;;;;1.70;1.50;;;1.80;98.20;;;;;;5066400;28;20572;-74
2021/12/26 02:53:12;;;;;;;1.70;1.50;;;1.80;98.20;;;;;;5072218;28;20988;-74
2021/12/26 02:55:41;;;;;;;1.63;1.50;;;1.80;98.20;;;;;;5063282;28;20458;-75
2021/12/26 02:58:10;;;;;;;1.70;1.60;;;1.70;98.20;;;;;;5051187;28;20483;-74
2021/12/26 03:00:40;;;;;;;1.70;1.60;;;1.80;98.20;;;;;;5063677;28;20458;-74
2021/12/26 03:03:07;;;;;;;1.70;1.60;;;1.70;98.20;;;;;;5052218;28;20484;-74
2021/12/26 03:05:37;;;;;;;1.70;1.60;;;1.70;98.20;;;;;;5064686;28;20496;-75
2021/12/26 03:08:04;;;;;;;1.67;1.50;;;1.70;98.20;;;;;;5073260;28;20521;-75
2021/12/26 03:10:33;;;;;;;1.70;1.60;;;1.70;98.20;;;;;;5067738;28;20488;-74
2021/12/26 03:13:02;;;;;;;1.70;1.60;;;1.70;98.20;;;;;;5056142;28;20477;-74
2021/12/26 03:15:31;;;;;;;1.70;1.50;;;1.70;98.20;;;;;;5064462;28;20473;-74
2021/12/26 03:18:00;;;;;;;1.90;1.80;;;1.60;98.20;;;;;;5056480;28;20572;-74
2021/12/26 03:20:30;;;;;;;1.70;1.50;;;1.60;98.20;;;;;;5059464;28;20545;-74
2021/12/26 03:23:00;;;;;;;3.07;2.87;;;1.60;98.20;;;;;;5052452;28;20554;-74
2021/12/26 03:25:32;;;;;;;1.70;1.60;;;1.60;98.20;;;;;;5062403;28;20512;-74
2021/12/26 03:28:01;;;;;;;1.70;1.50;;;1.60;98.20;;;;;;5055780;28;20473;-74
2021/12/26 03:30:29;;;;;;;1.70;1.50;;;1.60;98.20;;;;;;5067127;28;20493;-75
2021/12/26 03:32:58;;;;;;;1.70;1.60;;;1.60;98.20;;;;;;5057012;28;20515;-74
2021/12/26 03:35:27;;;;;;;1.70;1.60;;;1.60;98.20;;;;;;5064693;28;20555;-75
2021/12/26 03:37:54;;;;;;;1.70;1.60;;;1.60;98.20;;;;;;5072454;28;20495;-74
2021/12/26 03:40:21;;;;;;;3.00;2.80;;;1.60;98.20;;;;;;5063809;28;20465;-74
2021/12/26 03:42:51;;;;;;;1.70;1.50;;;1.60;98.20;;;;;;5072116;28;20485;-74
2021/12/26 03:45:20;;;;;;;1.80;1.70;;;1.70;98.20;;;;;;5063026;28;20469;-74
2021/12/26 03:47:49;;;;;;;1.70;1.60;;;1.70;98.20;;;;;;5054043;28;20494;-74
2021/12/26 03:50:18;;;;;;;1.70;1.60;;;1.70;98.20;;;;;;5065669;28;20461;-76
2021/12/26 03:52:44;;;;;;;1.70;1.60;;;1.70;98.20;;;;;;5054455;28;20481;-76
2021/12/26 03:55:11;;;;;;;1.70;1.60;;;1.70;98.20;;;;;;5065892;28;21383;-74
2021/12/26 03:57:38;;;;;;;1.70;1.60;;;1.70;98.20;;;;;;5054711;28;20489;-74
2021/12/26 04:00:07;;;;;;;1.67;1.50;;;1.80;98.20;;;;;;5067682;28;20483;-75
2021/12/26 04:02:35;;;;;;;1.80;1.70;;;1.80;98.20;;;;;;5055334;28;20481;-75
2021/12/26 04:05:02;;;;;;;1.70;1.60;;;1.80;98.20;;;;;;5061113;28;20462;-74
2021/12/26 04:07:28;;;;;;;1.70;1.50;;;1.80;98.20;;;;;;5070173;28;20555;-74
2021/12/26 04:09:55;;;;;;;1.63;1.50;;;1.80;98.20;;;;;;5064389;28;20465;-74
2021/12/26 04:12:22;;;;;;;1.67;1.50;;;1.80;98.20;;;;;;5068527;28;20485;-74
2021/12/26 04:14:49;;;;;;;1.60;1.40;;;1.80;98.20;;;;;;5064821;28;20559;-74
2021/12/26 04:17:16;;;;;;;1.70;1.60;;;1.80;98.20;;;;;;5057167;28;20488;-74
2021/12/26 04:19:44;;;;;;;1.70;1.50;;;1.90;98.20;;;;;;5063619;28;21283;-74
2021/12/26 04:22:11;;;;;;;1.67;1.50;;;1.90;98.20;;;;;;5056733;28;21441;-74
2021/12/26 04:24:38;;;;;;;1.60;1.50;;;1.90;98.20;;;;;;5060622;28;20461;-74
2021/12/26 04:27:05;;;;;;;1.70;1.60;;;1.90;98.20;;;;;;5054396;28;20564;-75
2021/12/26 04:29:32;;;;;;;2.67;2.47;;;1.90;98.20;;;;;;5062210;28;20472;-73
2021/12/26 04:31:59;;;;;;;2.30;2.10;;;1.90;98.20;;;;;;5065513;28;20483;-74
2021/12/26 04:34:26;;;;;;;1.70;1.60;;;1.90;98.20;;;;;;5069585;28;20492;-74
2021/12/26 04:36:54;;;;;;;1.80;1.70;;;1.90;98.20;;;;;;5057514;28;20560;-74
2021/12/26 04:39:21;;;;;;;1.70;1.60;;;1.90;98.20;;;;;;5063631;28;20461;-74
2021/12/26 04:41:48;;;;;;;1.80;1.70;;;1.90;98.20;;;;;;5054307;28;21120;-74
2021/12/26 04:44:15;;;;;;;1.63;1.50;;;1.90;98.20;;;;;;5063809;28;20459;-74
2021/12/26 04:46:42;;;;;;;1.67;1.50;;;2.00;98.20;;;;;;5050989;28;20478;-74
2021/12/26 04:49:09;;;;;;;1.70;1.60;;;2.00;98.20;;;;;;5061219;28;20993;-74
2021/12/26 04:51:35;;;;;;;1.70;1.60;;;2.00;98.20;;;;;;5055274;28;20921;-75
2021/12/26 04:54:04;;;;;;;1.63;1.50;;;2.00;98.20;;;;;;5074562;28;21003;-74
2021/12/26 04:56:31;;;;;;;1.63;1.50;;;2.00;98.20;;;;;;5056573;28;20509;-74
2021/12/26 04:58:58;;;;;;;1.80;1.70;;;2.00;98.20;;;;;;5065923;28;20495;-74
2021/12/26 05:01:25;;;;;;;1.70;1.60;;;2.00;98.20;;;;;;5052434;28;20491;-74
2021/12/26 05:03:52;;;;;;;1.73;1.63;;;2.00;98.20;;;;;;5064268;28;20462;-75
2021/12/26 05:06:19;;;;;;;1.70;1.50;;;2.00;98.20;;;;;;5050946;28;20485;-74
2021/12/26 05:08:45;;;;;;;1.63;1.50;;;2.00;98.20;;;;;;5066212;28;20482;-74
2021/12/26 05:11:14;;;;;;;1.70;1.60;;;2.00;98.20;;;;;;5054290;28;20482;-74
2021/12/26 05:13:41;;;;;;;1.67;1.50;;;2.10;98.20;;;;;;5061760;28;20466;-74
2021/12/26 05:16:07;;;;;;;2.43;2.23;;;2.10;98.20;;;;;;5055304;28;20470;-74
2021/12/26 05:18:34;;;;;;;1.67;1.50;;;2.10;98.20;;;;;;5064500;28;20474;-74
2021/12/26 05:21:01;;;;;;;1.63;1.40;;;2.10;98.20;;;;;;5055732;28;20449;-74
2021/12/26 05:23:28;;;;;;;1.70;1.60;;;2.10;98.20;;;;;;5077245;28;20474;-74
2021/12/26 05:25:55;;;;;;;1.73;1.63;;;2.10;98.20;;;;;;5052398;28;20457;-74
2021/12/26 05:28:23;;;;;;;1.60;1.50;;;2.10;98.20;;;;;;5080332;28;21023;-74
2021/12/26 05:30:50;;;;;;;1.80;1.70;;;2.20;98.20;;;;;;5054557;28;20464;-74
2021/12/26 05:33:17;;;;;;;1.70;1.60;;;2.20;98.20;;;;;;5061975;28;20457;-74
2021/12/26 05:35:44;;;;;;;1.70;1.50;;;2.20;98.20;;;;;;5061549;28;20462;-74
2021/12/26 05:38:11;;;;;;;1.60;1.50;;;2.10;98.20;;;;;;5055140;28;20500;-74
2021/12/26 05:40:38;;;;;;;1.63;1.50;;;2.10;98.20;;;;;;5064860;28;20461;-74
2021/12/26 05:43:05;;;;;;;1.80;1.70;;;2.20;98.20;;;;;;5070193;28;20477;-75
2021/12/26 05:45:34;;;;;;;1.63;1.50;;;2.20;98.20;;;;;;5061643;28;20465;-74
2021/12/26 05:48:01;;;;;;;1.60;1.50;;;2.20;98.20;;;;;;5056024;28;20540;-74
2021/12/26 05:50:27;;;;;;;1.70;1.50;;;2.10;98.20;;;;;;5063977;28;20484;-74
2021/12/26 05:52:54;;;;;;;1.67;1.50;;;2.20;98.20;;;;;;5068773;28;20499;-74
2021/12/26 05:55:21;;;;;;;1.70;1.60;;;2.20;98.20;;;;;;5063125;28;20457;-74
2021/12/26 05:57:48;;;;;;;1.80;1.70;;;2.10;98.20;;;;;;5067515;28;20488;-76
2021/12/26 06:00:18;;;;;;;1.60;1.50;;;2.20;98.20;;;;;;5060188;28;20549;-75
2021/12/26 06:02:49;;;;;;;1.67;1.50;;;2.20;98.20;;;;;;5059984;28;20488;-73
2021/12/26 06:05:16;;;;;;;1.80;1.70;;;2.20;98.20;;;;;;5067462;28;20527;-73
2021/12/26 06:07:43;;;;;;;1.60;1.40;;;2.10;98.20;;;;;;5058914;28;20540;-74
2021/12/26 06:10:10;;;;;;;2.10;1.90;;;2.10;98.20;;;;;;5068532;28;20465;-73
2021/12/26 06:12:37;;;;;;;1.90;1.60;;;2.10;98.20;;;;;;5058870;28;20477;-73
2021/12/26 06:15:04;;;;;;;1.70;1.60;;;2.10;98.20;;;;;;5067499;28;20461;-74
2021/12/26 06:17:31;;;;;;;1.67;1.50;;;2.00;98.20;;;;;;5071495;28;20861;-74
2021/12/26 06:19:59;;;;;;;1.70;1.60;;;2.00;98.20;;;;;;5068550;28;20472;-74
2021/12/26 06:22:26;;;;;;;1.70;1.50;;;2.00;98.20;;;;;;5071578;28;20483;-75
2021/12/26 06:24:53;;;;;;;1.70;1.50;;;2.00;98.20;;;;;;5069827;28;20552;-74
2021/12/26 06:27:20;;;;;;;1.63;1.50;;;2.00;98.20;;;;;;5056190;28;21229;-74
2021/12/26 06:29:47;;;;;;;1.60;1.50;;;2.00;98.20;;;;;;5064225;28;21087;-74
2021/12/26 06:32:14;;;;;;;1.70;1.60;;;2.00;98.20;;;;;;5058866;28;20481;-74
2021/12/26 06:34:41;;;;;;;1.73;1.63;;;2.10;98.20;;;;;;5063764;28;20543;-74
2021/12/26 06:37:09;;;;;;;3.60;3.30;;;2.10;98.20;;;;;;5058522;28;20477;-73
2021/12/26 06:39:36;;;;;;;1.70;1.60;;;2.10;98.20;;;;;;5065526;28;20469;-73
2021/12/26 06:42:03;;;;;;;1.90;1.80;;;2.10;98.20;;;;;;5068227;28;20484;-74
2021/12/26 06:44:30;;;;;;;1.70;1.57;;;2.10;98.20;;;;;;5070769;28;20994;-73
2021/12/26 06:46:57;;;;;;;1.70;1.50;;;2.10;98.20;;;;;;5053599;28;20524;-74
2021/12/26 06:49:24;;;;;;;1.63;1.50;;;2.10;98.20;;;;;;5066594;28;20464;-74
2021/12/26 06:51:51;;;;;;;1.67;1.50;;;2.10;98.20;;;;;;5066326;28;20567;-75
2021/12/26 06:54:19;;;;;;;1.70;1.50;;;2.10;98.20;;;;;;5073932;28;20472;-74
2021/12/26 06:56:46;;;;;;;2.20;2.00;;;2.10;98.20;;;;;;5061590;28;20491;-76
2021/12/26 06:59:13;;;;;;;1.70;1.50;;;2.10;98.20;;;;;;5074467;28;20486;-74
2021/12/26 07:01:40;;;;;;;1.70;1.60;;;2.10;98.20;;;;;;5061873;28;20555;-75
2021/12/26 07:04:07;;;;;;;1.80;1.70;;;2.10;98.20;;;;;;5076293;28;20490;-74
2021/12/26 07:06:34;;;;;;;1.70;1.50;;;2.20;98.20;;;;;;5058383;28;20477;-74
2021/12/26 07:09:01;;;;;;;1.63;1.50;;;2.20;98.20;;;;;;5066135;28;20559;-74
2021/12/26 07:11:29;;;;;;;1.63;1.50;;;2.20;98.20;;;;;;5060455;28;20575;-74
2021/12/26 07:13:56;;;;;;;1.73;1.63;;;2.20;98.20;;;;;;5077303;28;20461;-74
2021/12/26 07:16:23;;;;;;;1.70;1.50;;;2.20;98.20;;;;;;5058742;28;20530;-74
2021/12/26 07:18:50;;;;;;;1.70;1.60;;;2.20;98.20;;;;;;5075988;28;20508;-74
2021/12/26 07:21:18;;;;;;;1.73;1.63;;;2.20;98.20;;;;;;5056863;28;20483;-74
2021/12/26 07:23:44;;;;;;;1.70;1.50;;;2.20;98.20;;;;;;5065058;28;20473;-74
2021/12/26 07:26:11;;;;;;;1.67;1.40;;;2.20;98.20;;;;;;5052351;28;20484;-73
2021/12/26 07:28:40;;;;;;;1.63;1.47;;;2.20;98.20;;;;;;5065140;28;20555;-74
2021/12/26 07:31:07;;;;;;;1.67;1.50;;;2.20;98.20;;;;;;5055700;28;20652;-74
2021/12/26 07:33:34;;;;;;;1.63;1.47;;;2.20;98.20;;;;;;5065988;28;20561;-74
2021/12/26 07:36:01;;;;;;;1.63;1.50;;;2.20;98.20;;;;;;5057799;28;20489;-74
2021/12/26 07:38:28;;;;;;;1.70;1.60;;;2.20;98.20;;;;;;5080451;28;20509;-73
2021/12/26 07:40:55;;;;;;;2.40;2.20;;;2.20;98.20;;;;;;5051284;28;20968;-74
2021/12/26 07:43:21;;;;;;;1.63;1.50;;;2.30;98.20;;;;;;5081936;28;20487;-73
2021/12/26 07:45:50;;;;;;;1.60;1.50;;;2.30;98.20;;;;;;5047944;28;20470;-73
2021/12/26 07:48:17;;;;;;;1.63;1.50;;;2.30;98.20;;;;;;5082011;28;20573;-73
2021/12/26 07:50:44;;;;;;;1.70;1.50;;;2.30;98.20;;;;;;5067240;28;20457;-73
2021/12/26 07:53:12;;;;;;;1.70;1.60;;;2.30;98.20;;;;;;5052941;28;20500;-73
2021/12/26 07:55:40;;;;;;;1.63;1.47;;;2.30;98.20;;;;;;5059760;28;20473;-73
2021/12/26 07:58:07;;;;;;;1.70;1.60;;;2.30;98.20;;;;;;5071077;28;20566;-72
2021/12/26 08:00:35;;;;;;;1.70;1.50;;;2.30;98.20;;;;;;5061844;28;20461;-73
2021/12/26 08:03:04;;;;;;;1.90;1.77;;;2.30;98.20;;;;;;5070941;28;20476;-73
2021/12/26 08:05:31;;;;;;;1.60;1.43;;;2.30;98.20;;;;;;5059109;28;20603;-73
2021/12/26 08:07:59;;;;;;;1.67;1.50;;;2.30;98.20;;;;;;5070887;28;20480;-74
2021/12/26 08:10:26;;;;;;;1.80;1.70;;;2.30;98.20;;;;;;5065140;28;20457;-73
2021/12/26 08:12:53;;;;;;;1.67;1.50;;;2.30;98.20;;;;;;5055361;28;20484;-72
2021/12/26 08:15:20;;;;;;;1.63;1.50;;;2.40;98.20;;;;;;5059985;28;20565;-74
2021/12/26 08:17:47;;;;;;;1.70;1.50;;;2.40;98.20;;;;;;5071353;28;20583;-73
2021/12/26 08:20:16;;;;;;;3.70;3.40;;;2.40;98.20;;;;;;5062890;28;20965;-74
2021/12/26 08:22:43;;;;;;;1.70;1.60;;;2.40;98.20;;;;;;5070214;28;20555;-74
2021/12/26 08:25:11;;;;;;;1.67;1.50;;;2.40;98.20;;;;;;5060656;28;20847;-73
2021/12/26 08:27:39;;;;;;;1.70;1.50;;;2.40;98.20;;;;;;5065138;28;20580;-73
2021/12/26 08:30:07;;;;;;;1.63;1.50;;;2.40;98.20;;;;;;5066679;28;20469;-73
2021/12/26 08:32:38;;;;;;;1.60;1.50;;;2.40;98.20;;;;;;5053029;28;21135;-73
2021/12/26 08:35:07;;;;;;;3.60;3.30;;;2.40;98.20;;;;;;5061509;28;20462;-73
2021/12/26 08:37:37;;;;;;;1.70;1.47;;;2.50;98.20;;;;;;5070523;28;20487;-74
2021/12/26 08:40:04;;;;;;;1.63;1.50;;;2.50;98.20;;;;;;5065861;28;20462;-75
2021/12/26 08:42:31;;;;;;;1.63;1.40;;;2.50;98.20;;;;;;5054576;28;20939;-74
2021/12/26 08:44:59;;;;;;;1.63;1.40;;;2.50;98.20;;;;;;5064858;28;20457;-74
2021/12/26 08:47:27;;;;;;;2.33;2.13;;;2.60;98.20;;;;;;5055421;28;20560;-74
2021/12/26 08:49:54;;;;;;;1.63;1.50;;;2.60;98.20;;;;;;5062471;28;20465;-74
2021/12/26 08:52:22;;;;;;;1.67;1.50;;;2.60;98.20;;;;;;5055581;28;21100;-74
2021/12/26 08:54:50;;;;;;;1.67;1.50;;;2.60;98.20;;;;;;5064115;28;20493;-74
2021/12/26 08:57:17;;;;;;;14.67;14.03;;;2.60;98.20;;;;;;5052604;28;20497;-74
2021/12/26 08:59:44;;;;;;;1.70;1.50;;;2.70;98.20;;;;;;5060854;28;20465;-73
2021/12/26 09:02:12;;;;;;;1.63;1.40;;;2.70;98.20;;;;;;5062354;28;20477;-74
2021/12/26 09:04:40;;;;;;;1.67;1.40;;;2.70;98.20;;;;;;5067781;28;20458;-74
2021/12/26 09:07:09;;;;;;;1.73;1.63;;;2.60;98.20;;;;;;5063289;28;20483;-74
2021/12/26 09:09:37;;;;;;;1.70;1.50;;;2.70;98.20;;;;;;5068213;28;20942;-74
2021/12/26 09:12:07;;;;;;;1.67;1.50;;;2.60;98.20;;;;;;5062062;28;20534;-74
2021/12/26 09:14:34;;;;;;;1.67;1.50;;;2.70;98.20;;;;;;5067925;28;20837;-76
2021/12/26 09:17:03;;;;;;;1.70;1.50;;;2.70;98.20;;;;;;5050301;28;20477;-74
2021/12/26 09:19:30;;;;;;;1.67;1.50;;;2.70;98.20;;;;;;5063639;28;20453;-74
2021/12/26 09:21:58;;;;;;;1.70;1.50;;;2.70;98.20;;;;;;5051910;28;20477;-74
2021/12/26 09:24:25;;;;;;;1.70;1.50;;;2.70;98.20;;;;;;5062871;28;20503;-75
2021/12/26 09:26:52;;;;;;;1.67;1.50;;;2.70;98.20;;;;;;5052010;28;20503;-75
2021/12/26 09:29:21;;;;;;;1.67;1.50;;;2.70;98.20;;;;;;5066889;28;20464;-75
2021/12/26 09:31:51;;;;;;;1.67;1.50;;;2.80;98.20;;;;;;5052387;28;20984;-76
2021/12/26 09:34:19;;;;;;;1.67;1.50;;;2.80;98.20;;;;;;5056455;28;20493;-75
2021/12/26 09:36:47;;;;;;;1.67;1.43;;;2.80;98.20;;;;;;5057563;28;20516;-73
2021/12/26 09:39:15;;;;;;;1.63;1.50;;;2.80;98.20;;;;;;5067015;28;20564;-73
2021/12/26 09:41:42;;;;;;;1.63;1.40;;;2.80;98.20;;;;;;5055183;28;21311;-73
2021/12/26 09:44:11;;;;;;;1.67;1.50;;;2.90;98.20;;;;;;5067012;28;20467;-73
2021/12/26 09:46:39;;;;;;;1.70;1.60;;;2.90;98.20;;;;;;5050778;28;20491;-73
2021/12/26 09:49:06;;;;;;;1.70;1.50;;;2.90;98.20;;;;;;5057948;28;20856;-73
2021/12/26 09:51:33;;;;;;;1.60;1.50;;;3.00;98.20;;;;;;5057599;28;21044;-74
2021/12/26 09:54:00;;;;;;;1.70;1.50;;;3.00;98.20;;;;;;5069601;28;20485;-74
2021/12/26 09:56:28;;;;;;;1.60;1.40;;;3.10;98.20;;;;;;5051316;28;20518;-72
2021/12/26 09:58:57;;;;;;;1.60;1.50;;;3.10;98.20;;;;;;5060593;28;20491;-75
2021/12/26 10:01:29;;;;;;;1.70;1.40;;;3.10;98.20;;;;;;5055184;28;20486;-75
2021/12/26 10:04:00;;;;;;;1.67;1.57;;;3.10;98.20;;;;;;5066575;28;20624;-73
2021/12/26 10:06:33;;;;;;;1.70;1.47;;;3.10;98.20;;;;;;5053407;28;21061;-74
2021/12/26 10:09:02;;;;;;;1.70;1.50;;;3.10;98.20;;;;;;5058942;28;20485;-73
2021/12/26 10:11:31;;;;;;;1.70;1.50;;;3.10;98.20;;;;;;5052556;28;20494;-74
2021/12/26 10:14:01;;;;;;;1.63;1.40;;;3.00;98.20;;;;;;5068433;28;20485;-73
2021/12/26 10:16:31;;;;;;;4.03;3.73;;;3.00;98.20;;;;;;5053193;28;20851;-72
2021/12/26 10:19:00;;;;;;;1.63;1.40;;;3.00;98.20;;;;;;5067009;28;20485;-75
2021/12/26 10:21:37;;;;;;;1.60;1.50;;;3.00;98.20;;;;;;5054413;28;20484;-73
2021/12/26 10:24:11;;;;;;;1.70;1.50;;;3.00;98.20;;;;;;5068101;28;20492;-73
2021/12/26 10:26:40;;;;;;;1.80;1.70;;;2.90;98.20;;;;;;5056066;28;20848;-73
2021/12/26 10:29:16;;;;;;;2.17;1.97;;;2.90;98.20;;;;;;5065740;28;20485;-73
2021/12/26 10:31:47;;;;;;;1.63;1.50;;;2.90;98.20;;;;;;5044212;28;20643;-74
2021/12/26 10:34:22;;;;;;;1.67;1.40;;;2.90;98.20;;;;;;5058060;28;21099;-73
2021/12/26 10:36:54;;;;;;;1.70;1.50;;;2.80;98.20;;;;;;5049893;28;20476;-73
2021/12/26 10:39:24;;;;;;;1.63;1.40;;;2.90;98.20;;;;;;5056968;28;20461;-73
2021/12/26 10:41:53;;;;;;;1.70;1.57;;;2.90;98.20;;;;;;5058962;28;20573;-73
2021/12/26 10:44:27;;;;;;;1.70;1.53;;;2.90;98.20;;;;;;5063261;28;20454;-71
2021/12/26 10:46:58;;;;;;;1.77;1.67;;;2.90;98.20;;;;;;5058356;28;20518;-70
2021/12/26 10:49:40;;;;;;;1.70;1.60;;;2.90;98.20;;;;;;5065189;28;20575;-71
2021/12/26 10:52:14;;;;;;;1.63;1.40;;;2.80;98.20;;;;;;5050869;28;20480;-71
2021/12/26 10:54:44;;;;;;;1.63;1.43;;;2.90;98.20;;;;;;5059618;28;20491;-71
2021/12/26 10:57:19;;;;;;;1.60;1.33;;;2.90;98.20;;;;;;5061627;28;20488;-72
2021/12/26 10:59:48;;;;;;;1.67;1.40;;;2.90;98.20;;;;;;5069084;28;20468;-72
2021/12/26 11:02:26;;;;;;;1.63;1.50;;;2.90;98.20;;;;;;5048615;28;20509;-73
2021/12/26 11:05:04;;;;;;;1.70;1.50;;;3.00;98.20;;;;;;5060915;28;20488;-72
2021/12/26 11:07:53;;;;;;;1.70;1.50;;;3.00;98.20;;;;;;5064311;28;20492;-72
2021/12/26 11:10:25;;;;;;;1.67;1.50;;;3.00;98.20;;;;;;5059788;28;21515;-73
2021/12/26 11:12:54;;;;;;;1.60;1.40;;;3.10;98.20;;;;;;5067713;28;20494;-73
2021/12/26 11:15:23;;;;;;;1.83;1.73;;;3.10;98.20;;;;;;5062241;28;20532;-72
2021/12/26 11:17:54;;;;;;;3.30;3.10;;;3.10;98.20;;;;;;5068351;28;20512;-72
2021/12/26 11:20:26;;;;;;;1.60;1.47;;;3.20;98.20;;;;;;5066189;28;20468;-73
2021/12/26 11:22:53;;;;;;;1.63;1.43;;;3.30;98.20;;;;;;5052255;28;20503;-73
2021/12/26 11:25:21;;;;;;;1.70;1.60;;;3.40;98.20;;;;;;5064795;28;20461;-73
2021/12/26 11:27:48;;;;;;;1.60;1.40;;;3.50;98.20;;;;;;5070043;28;20492;-73
2021/12/26 11:30:16;;;;;;;3.60;3.30;;;3.50;98.20;;;;;;5061755;28;20469;-73
2021/12/26 11:32:43;;;;;;;1.63;1.43;;;3.50;98.20;;;;;;5053582;28;20489;-72
2021/12/26 11:35:11;;;;;;;1.60;1.40;;;3.50;98.20;;;;;;5062454;28;20461;-73
2021/12/26 11:37:40;;;;;;;1.60;1.40;;;3.50;98.20;;;;;;5068842;28;20912;-71
2021/12/26 11:40:11;;;;;;;1.70;1.50;;;3.60;98.20;;;;;;5064161;28;20468;-73
2021/12/26 11:43:13;;;;;;;1.60;1.40;;;3.60;98.20;;;;;;5066614;28;20480;-72
2021/12/26 11:45:53;;;;;;;1.60;1.40;;;3.60;98.20;;;;;;5061553;28;20472;-73
2021/12/26 11:48:52;;;;;;;1.60;1.40;;;3.70;98.20;;;;;;5052417;28;21298;-71
2021/12/26 11:51:38;;;;;;;1.63;1.40;;;3.70;98.20;;;;;;5052571;28;21012;-72
2021/12/26 11:54:50;;;;;;;1.60;1.40;;;3.70;98.20;;;;;;5061016;28;20831;-73
2021/12/26 11:57:44;;;;;;;1.60;1.40;;;3.70;98.20;;;;;;5058423;28;21034;-73
2021/12/26 12:00:14;;;;;;;1.67;1.50;;;3.80;98.20;;;;;;5064056;28;20473;-73
2021/12/26 12:02:45;;;;;;;1.63;1.40;;;3.80;98.20;;;;;;5069015;28;20516;-74
2021/12/26 12:05:23;;;;;;;1.70;1.40;;;3.80;98.20;;;;;;5064906;28;20457;-75
2021/12/26 12:07:55;;;;;;;1.60;1.40;;;3.80;98.20;;;;;;5068854;28;21000;-74
2021/12/26 12:10:35;;;;;;;1.60;1.30;;;3.90;98.20;;;;;;5064365;28;20548;-75
2021/12/26 12:13:04;;;;;;;1.60;1.40;;;3.90;98.20;;;;;;5067817;28;20584;-72
2021/12/26 12:15:50;;;;;;;1.63;1.40;;;3.90;98.20;;;;;;5063462;28;20479;-74
2021/12/26 12:18:21;;;;;;;4.30;3.93;;;4.00;98.20;;;;;;5049116;28;20580;-73
2021/12/26 12:20:48;;;;;;;1.60;1.40;;;4.00;98.20;;;;;;5053808;28;20869;-73
2021/12/26 12:23:21;;;;;;;1.60;1.40;;;4.10;98.20;;;;;;5062052;28;21031;-74
2021/12/26 12:25:53;;;;;;;1.67;1.40;;;4.10;98.20;;;;;;5054161;28;20461;-73
2021/12/26 12:28:28;;;;;;;1.63;1.40;;;4.10;98.20;;;;;;5079080;28;20576;-73
2021/12/26 12:30:58;;;;;;;1.70;1.40;;;4.20;98.20;;;;;;5052980;28;20452;-74
2021/12/26 12:33:29;;;;;;;1.70;1.40;;;4.20;98.20;;;;;;5078785;28;20489;-74
2021/12/26 12:36:03;;;;;;;1.60;1.40;;;4.20;98.20;;;;;;5054870;28;20462;-75
2021/12/26 12:38:34;;;;;;;1.60;1.40;;;4.20;98.20;;;;;;5077596;28;20578;-75
2021/12/26 12:41:07;;;;;;;1.60;1.40;;;4.20;98.20;;;;;;5055537;28;21310;-75
2021/12/26 12:43:45;;;;;;;1.70;1.50;;;4.20;98.20;;;;;;5076055;28;20457;-74
2021/12/26 12:46:13;;;;;;;2.00;1.80;;;4.20;98.20;;;;;;5056373;28;20566;-74
2021/12/26 12:48:44;;;;;;;1.70;1.50;;;4.20;98.20;;;;;;5076530;28;20542;-74
2021/12/26 12:51:36;;;;;;;1.70;1.40;;;4.30;98.20;;;;;;5054333;28;20476;-74
2021/12/26 12:54:07;;;;;;;1.60;1.40;;;4.30;98.20;;;;;;5064786;28;20924;-74
2021/12/26 12:56:44;;;;;;;1.70;1.40;;;4.30;98.20;;;;;;5055894;28;20484;-74
2021/12/26 12:59:43;;;;;;;5.87;3.47;;;4.30;98.20;;;;;;5067598;28;21138;-75
2021/12/26 13:02:30;;;;;;;1.63;1.40;;;4.30;98.20;;;;;;4987034;28;20955;-75
2021/12/26 13:04:57;;;;;;;1.87;1.70;;;4.30;98.20;;;;;;5055425;28;20553;-77
2021/12/26 13:07:26;;;;;;;1.60;1.40;;;4.30;98.20;;;;;;5063648;28;21050;-78
2021/12/26 13:09:57;;;;;;;1.63;1.40;;;4.20;98.20;;;;;;5064501;28;20960;-74
2021/12/26 13:12:27;;;;;;;1.60;1.40;;;4.30;98.20;;;;;;5067129;28;20876;-75
2021/12/26 13:14:56;;;;;;;1.67;1.40;;;4.20;98.20;;;;;;5064937;28;20500;-74